sensor_id;sensor_type;location;lat;lon;timestamp;pressure;altitude;pressure_sealevel;temperature;humidity
58753;BME280;44525;46.052;13.610;2022-07-10T06:45:13;100795.34;;;21.37;51.17
58753;BME280;44525;46.052;13.610;2022-07-10T06:47:39;100796.25;;;21.54;51.39
58753;BME280;44525;46.052;13.610;2022-07-10T06:50:26;100795.44;;;21.53;50.61
58753;BME280;44525;46.052;13.610;2022-07-10T06:52:55;100788.59;;;21.63;50.52
58753;BME280;44525;46.052;13.610;2022-07-10T06:55:21;100789.16;;;21.85;49.77
58753;BME280;44525;46.052;13.610;2022-07-10T06:57:47;100787.78;;;22.23;49.91
58753;BME280;44525;46.052;13.610;2022-07-10T07:00:13;100785.53;;;22.29;50.35
58753;BME280;44525;46.052;13.610;2022-07-10T07:02:40;100786.44;;;22.17;49.22
58753;BME280;44525;46.052;13.610;2022-07-10T07:05:06;100780.34;;;22.11;49.23
58753;BME280;44525;46.052;13.610;2022-07-10T07:07:32;100783.41;;;22.38;48.55
58753;BME280;44525;46.052;13.610;2022-07-10T07:09:58;100780.56;;;22.50;48.50
58753;BME280;44525;46.052;13.610;2022-07-10T07:12:23;100777.81;;;22.50;48.29
58753;BME280;44525;46.052;13.610;2022-07-10T07:14:49;100779.31;;;22.48;48.43
58753;BME280;44525;46.052;13.610;2022-07-10T07:17:15;100777.41;;;22.20;49.12
58753;BME280;44525;46.052;13.610;2022-07-10T07:19:47;100782.66;;;21.93;49.28
58753;BME280;44525;46.052;13.610;2022-07-10T07:22:31;100771.69;;;21.81;49.35
58753;BME280;44525;46.052;13.610;2022-07-10T07:25:15;100775.88;;;21.90;49.19
58753;BME280;44525;46.052;13.610;2022-07-10T07:27:40;100779.13;;;21.93;49.13
58753;BME280;44525;46.052;13.610;2022-07-10T07:30:08;100777.25;;;22.29;48.35
58753;BME280;44525;46.052;13.610;2022-07-10T07:32:38;100781.19;;;22.43;48.01
58753;BME280;44525;46.052;13.610;2022-07-10T07:35:05;100782.09;;;22.48;47.56
58753;BME280;44525;46.052;13.610;2022-07-10T07:37:49;100782.50;;;23.01;46.71
58753;BME280;44525;46.052;13.610;2022-07-10T07:40:18;100786.78;;;23.54;45.81
58753;BME280;44525;46.052;13.610;2022-07-10T07:42:52;100775.25;;;23.32;44.89
58753;BME280;44525;46.052;13.610;2022-07-10T07:45:19;100787.06;;;23.68;44.96
58753;BME280;44525;46.052;13.610;2022-07-10T07:50:18;100772.63;;;23.82;44.14
58753;BME280;44525;46.052;13.610;2022-07-10T07:52:45;100771.09;;;23.85;43.86
58753;BME280;44525;46.052;13.610;2022-07-10T07:55:11;100768.88;;;24.40;43.32
58753;BME280;44525;46.052;13.610;2022-07-10T07:57:38;100772.22;;;24.49;43.27
58753;BME280;44525;46.052;13.610;2022-07-10T08:00:05;100760.69;;;24.74;42.67
58753;BME280;44525;46.052;13.610;2022-07-10T08:02:32;100758.63;;;24.44;42.92
58753;BME280;44525;46.052;13.610;2022-07-10T09:08:26;100708.88;;;25.23;44.15
58753;BME280;44525;46.052;13.610;2022-07-10T09:11:14;100707.13;;;25.38;44.06
58753;BME280;44525;46.052;13.610;2022-07-10T09:16:23;100710.22;;;25.33;44.22
58753;BME280;44525;46.052;13.610;2022-07-10T09:18:48;100703.88;;;25.32;43.73
58753;BME280;44525;46.052;13.610;2022-07-10T09:21:14;100697.03;;;25.26;44.16
58753;BME280;44525;46.052;13.610;2022-07-10T09:23:39;100700.41;;;25.43;43.31
58753;BME280;44525;46.052;13.610;2022-07-10T09:26:05;100698.78;;;25.83;42.79
58753;BME280;44525;46.052;13.610;2022-07-10T09:28:30;100698.41;;;26.33;41.24
58753;BME280;44525;46.052;13.610;2022-07-10T09:30:56;100692.69;;;26.74;40.71
58753;BME280;44525;46.052;13.610;2022-07-10T09:33:25;100700.50;;;26.50;41.07
58753;BME280;44525;46.052;13.610;2022-07-10T09:36:07;100701.09;;;26.88;40.46
58753;BME280;44525;46.052;13.610;2022-07-10T09:41:25;100694.59;;;28.12;37.06
58753;BME280;44525;46.052;13.610;2022-07-10T09:43:59;100689.34;;;28.35;35.61
58753;BME280;44525;46.052;13.610;2022-07-10T09:51:38;100683.19;;;28.98;34.60
58753;BME280;44525;46.052;13.610;2022-07-10T09:54:06;100682.59;;;29.39;34.18
58753;BME280;44525;46.052;13.610;2022-07-10T09:56:38;100673.47;;;29.28;33.77
58753;BME280;44525;46.052;13.610;2022-07-10T09:59:09;100666.59;;;29.36;33.29
58753;BME280;44525;46.052;13.610;2022-07-10T10:01:36;100671.63;;;29.63;33.37
58753;BME280;44525;46.052;13.610;2022-07-10T10:04:04;100658.28;;;29.78;32.89
58753;BME280;44525;46.052;13.610;2022-07-10T10:06:30;100662.47;;;30.04;31.80
58753;BME280;44525;46.052;13.610;2022-07-10T10:09:04;100648.13;;;30.37;31.30
58753;BME280;44525;46.052;13.610;2022-07-10T10:11:33;100652.31;;;30.21;30.89
58753;BME280;44525;46.052;13.610;2022-07-10T10:14:01;100648.91;;;30.75;31.39
58753;BME280;44525;46.052;13.610;2022-07-10T10:16:28;100650.59;;;31.00;31.64
58753;BME280;44525;46.052;13.610;2022-07-10T10:18:55;100645.72;;;30.39;31.94
58753;BME280;44525;46.052;13.610;2022-07-10T10:21:39;100645.25;;;29.57;32.26
58753;BME280;44525;46.052;13.610;2022-07-10T10:24:05;100637.41;;;29.90;31.35
58753;BME280;44525;46.052;13.610;2022-07-10T10:26:32;100636.78;;;30.51;30.84
58753;BME280;44525;46.052;13.610;2022-07-10T10:29:00;100632.75;;;30.14;31.73
58753;BME280;44525;46.052;13.610;2022-07-10T10:31:27;100624.41;;;30.11;31.60
58753;BME280;44525;46.052;13.610;2022-07-10T10:33:55;100629.63;;;30.77;29.80
58753;BME280;44525;46.052;13.610;2022-07-10T10:39:15;100611.97;;;31.11;27.79
58753;BME280;44525;46.052;13.610;2022-07-10T10:41:46;100612.69;;;31.16;27.72
58753;BME280;44525;46.052;13.610;2022-07-10T10:49:17;100605.00;;;29.89;31.92
58753;BME280;44525;46.052;13.610;2022-07-10T10:54:30;100601.03;;;30.24;32.14
58753;BME280;44525;46.052;13.610;2022-07-10T10:57:16;100601.72;;;29.52;32.11
58753;BME280;44525;46.052;13.610;2022-07-10T10:59:54;100594.72;;;29.30;32.42
58753;BME280;44525;46.052;13.610;2022-07-10T11:02:30;100597.97;;;29.17;32.35
58753;BME280;44525;46.052;13.610;2022-07-10T11:07:54;100593.72;;;29.51;31.08
58753;BME280;44525;46.052;13.610;2022-07-10T11:13:05;100600.41;;;29.12;33.33
58753;BME280;44525;46.052;13.610;2022-07-10T11:15:40;100593.34;;;28.89;30.88
58753;BME280;44525;46.052;13.610;2022-07-10T11:18:17;100591.63;;;29.10;29.88
58753;BME280;44525;46.052;13.610;2022-07-10T11:20:47;100592.91;;;29.54;31.87
58753;BME280;44525;46.052;13.610;2022-07-10T11:25:54;100584.00;;;29.17;28.71
58753;BME280;44525;46.052;13.610;2022-07-10T11:28:53;100576.34;;;29.70;27.69
58753;BME280;44525;46.052;13.610;2022-07-10T11:31:21;100579.44;;;29.87;26.75
58753;BME280;44525;46.052;13.610;2022-07-10T11:33:49;100581.59;;;29.68;27.99
58753;BME280;44525;46.052;13.610;2022-07-10T11:36:21;100584.81;;;29.11;28.81
58753;BME280;44525;46.052;13.610;2022-07-10T11:38:56;100585.09;;;28.67;31.05
58753;BME280;44525;46.052;13.610;2022-07-10T11:41:23;100582.50;;;28.10;30.07
58753;BME280;44525;46.052;13.610;2022-07-10T11:46:25;100582.94;;;27.40;29.97
58753;BME280;44525;46.052;13.610;2022-07-10T11:48:52;100579.31;;;27.14;31.58
58753;BME280;44525;46.052;13.610;2022-07-10T11:51:30;100592.03;;;27.04;33.54
58753;BME280;44525;46.052;13.610;2022-07-10T11:54:03;100598.34;;;26.76;34.35
58753;BME280;44525;46.052;13.610;2022-07-10T11:56:31;100601.03;;;26.54;36.14
58753;BME280;44525;46.052;13.610;2022-07-10T11:59:05;100608.94;;;26.41;37.09
58753;BME280;44525;46.052;13.610;2022-07-10T12:01:33;100607.22;;;26.19;38.96
58753;BME280;44525;46.052;13.610;2022-07-10T12:04:03;100602.91;;;26.25;37.70
58753;BME280;44525;46.052;13.610;2022-07-10T12:06:34;100610.47;;;26.32;37.02
58753;BME280;44525;46.052;13.610;2022-07-10T12:09:03;100612.44;;;26.27;38.96
58753;BME280;44525;46.052;13.610;2022-07-10T12:11:29;100615.63;;;26.22;37.60
58753;BME280;44525;46.052;13.610;2022-07-10T12:14:14;100624.22;;;25.99;41.00
58753;BME280;44525;46.052;13.610;2022-07-10T12:16:42;100623.47;;;25.58;45.15
58753;BME280;44525;46.052;13.610;2022-07-10T12:19:12;100628.44;;;25.37;46.58
58753;BME280;44525;46.052;13.610;2022-07-10T12:21:39;100623.56;;;25.27;45.27
58753;BME280;44525;46.052;13.610;2022-07-10T12:24:06;100622.50;;;25.84;44.39
58753;BME280;44525;46.052;13.610;2022-07-10T12:26:34;100622.44;;;25.80;45.80
58753;BME280;44525;46.052;13.610;2022-07-10T12:29:01;100628.22;;;26.79;43.16
58753;BME280;44525;46.052;13.610;2022-07-10T12:31:28;100622.31;;;27.06;39.94
58753;BME280;44525;46.052;13.610;2022-07-10T12:33:56;100635.06;;;27.07;38.56
58753;BME280;44525;46.052;13.610;2022-07-10T12:36:52;100621.56;;;27.23;38.74
58753;BME280;44525;46.052;13.610;2022-07-10T12:39:21;100604.47;;;27.68;38.80
58753;BME280;44525;46.052;13.610;2022-07-10T12:41:55;100607.63;;;27.95;41.47
58753;BME280;44525;46.052;13.610;2022-07-10T12:44:35;100604.03;;;28.13;40.59
58753;BME280;44525;46.052;13.610;2022-07-10T12:47:18;100601.94;;;28.49;39.99
58753;BME280;44525;46.052;13.610;2022-07-10T12:50:02;100596.50;;;28.95;36.46
58753;BME280;44525;46.052;13.610;2022-07-10T12:58:05;100580.38;;;29.20;34.73
58753;BME280;44525;46.052;13.610;2022-07-10T13:00:32;100577.25;;;29.08;33.83
58753;BME280;44525;46.052;13.610;2022-07-10T13:03:00;100581.34;;;28.96;33.00
58753;BME280;44525;46.052;13.610;2022-07-10T13:05:34;100584.41;;;29.16;32.53
58753;BME280;44525;46.052;13.610;2022-07-10T13:08:18;100569.13;;;29.31;31.57
58753;BME280;44525;46.052;13.610;2022-07-10T13:10:51;100565.94;;;29.29;30.67
58753;BME280;44525;46.052;13.610;2022-07-10T13:13:24;100562.53;;;29.52;31.34
58753;BME280;44525;46.052;13.610;2022-07-10T13:15:49;100565.31;;;29.56;31.31
58753;BME280;44525;46.052;13.610;2022-07-10T13:18:17;100563.31;;;29.56;31.11
58753;BME280;44525;46.052;13.610;2022-07-10T13:20:47;100565.56;;;29.72;30.76
58753;BME280;44525;46.052;13.610;2022-07-10T13:23:14;100561.06;;;29.86;31.28
58753;BME280;44525;46.052;13.610;2022-07-10T13:25:40;100558.88;;;30.01;32.29
58753;BME280;44525;46.052;13.610;2022-07-10T13:28:07;100559.88;;;29.80;31.31
58753;BME280;44525;46.052;13.610;2022-07-10T13:30:33;100561.81;;;29.45;32.10
58753;BME280;44525;46.052;13.610;2022-07-10T13:32:59;100545.97;;;29.31;31.78
58753;BME280;44525;46.052;13.610;2022-07-10T13:35:29;100541.22;;;29.20;31.44
58753;BME280;44525;46.052;13.610;2022-07-10T13:37:55;100538.72;;;29.33;31.77
58753;BME280;44525;46.052;13.610;2022-07-10T13:40:21;100543.66;;;29.11;32.25
58753;BME280;44525;46.052;13.610;2022-07-10T13:42:46;100548.63;;;28.89;32.74
58753;BME280;44525;46.052;13.610;2022-07-10T13:45:12;100546.25;;;28.84;32.75
58753;BME280;44525;46.052;13.610;2022-07-10T13:47:38;100544.84;;;28.47;33.47
58753;BME280;44525;46.052;13.610;2022-07-10T13:50:04;100545.69;;;28.33;33.67
58753;BME280;44525;46.052;13.610;2022-07-10T13:52:29;100545.72;;;28.29;33.38
58753;BME280;44525;46.052;13.610;2022-07-10T13:54:55;100544.13;;;28.28;33.66
58753;BME280;44525;46.052;13.610;2022-07-10T13:57:20;100551.38;;;28.08;35.25
58753;BME280;44525;46.052;13.610;2022-07-10T13:59:46;100542.22;;;27.93;33.41
58753;BME280;44525;46.052;13.610;2022-07-10T14:02:12;100550.22;;;27.91;33.15
58753;BME280;44525;46.052;13.610;2022-07-10T14:04:37;100544.69;;;27.73;33.52
58753;BME280;44525;46.052;13.610;2022-07-10T14:07:03;100545.88;;;27.64;34.28
58753;BME280;44525;46.052;13.610;2022-07-10T14:09:29;100547.50;;;27.51;34.47
58753;BME280;44525;46.052;13.610;2022-07-10T14:11:54;100553.88;;;27.48;34.32
58753;BME280;44525;46.052;13.610;2022-07-10T14:14:20;100550.28;;;27.44;33.91
58753;BME280;44525;46.052;13.610;2022-07-10T14:16:47;100550.25;;;27.26;34.73
58753;BME280;44525;46.052;13.610;2022-07-10T14:19:15;100556.63;;;27.26;35.14
58753;BME280;44525;46.052;13.610;2022-07-10T14:21:40;100547.88;;;27.17;35.99
58753;BME280;44525;46.052;13.610;2022-07-10T14:24:06;100557.84;;;27.18;36.05
58753;BME280;44525;46.052;13.610;2022-07-10T14:26:32;100555.41;;;27.24;37.96
58753;BME280;44525;46.052;13.610;2022-07-10T14:29:00;100549.84;;;27.02;39.58
58753;BME280;44525;46.052;13.610;2022-07-10T14:31:27;100552.25;;;27.04;38.88
58753;BME280;44525;46.052;13.610;2022-07-10T14:33:53;100555.41;;;26.91;38.13
58753;BME280;44525;46.052;13.610;2022-07-10T14:36:18;100560.19;;;26.87;38.66
58753;BME280;44525;46.052;13.610;2022-07-10T14:38:44;100559.31;;;26.69;38.05
58753;BME280;44525;46.052;13.610;2022-07-10T14:41:10;100562.06;;;26.58;39.30
58753;BME280;44525;46.052;13.610;2022-07-10T14:43:36;100564.81;;;26.54;40.14
58753;BME280;44525;46.052;13.610;2022-07-10T14:46:02;100566.78;;;26.47;40.61
58753;BME280;44525;46.052;13.610;2022-07-10T14:48:31;100583.06;;;26.41;40.00
58753;BME280;44525;46.052;13.610;2022-07-10T14:50:57;100571.56;;;26.46;39.96
58753;BME280;44525;46.052;13.610;2022-07-10T14:53:23;100590.63;;;26.44;39.65
58753;BME280;44525;46.052;13.610;2022-07-10T14:55:48;100587.00;;;26.29;39.43
58753;BME280;44525;46.052;13.610;2022-07-10T14:58:14;100589.38;;;26.31;39.29
58753;BME280;44525;46.052;13.610;2022-07-10T15:00:40;100579.50;;;26.37;39.64
58753;BME280;44525;46.052;13.610;2022-07-10T15:03:05;100586.31;;;26.50;40.81
58753;BME280;44525;46.052;13.610;2022-07-10T15:05:31;100587.03;;;26.33;39.88
58753;BME280;44525;46.052;13.610;2022-07-10T15:07:59;100590.66;;;26.51;39.37
58753;BME280;44525;46.052;13.610;2022-07-10T15:10:25;100586.66;;;26.41;39.09
58753;BME280;44525;46.052;13.610;2022-07-10T15:12:51;100591.41;;;26.37;38.23
58753;BME280;44525;46.052;13.610;2022-07-10T15:15:17;100597.34;;;26.29;38.54
58753;BME280;44525;46.052;13.610;2022-07-10T15:17:42;100588.91;;;26.14;39.31
58753;BME280;44525;46.052;13.610;2022-07-10T15:20:09;100588.94;;;26.21;39.40
58753;BME280;44525;46.052;13.610;2022-07-10T15:22:35;100588.91;;;26.14;39.74
58753;BME280;44525;46.052;13.610;2022-07-10T15:25:01;100589.25;;;26.02;40.58
58753;BME280;44525;46.052;13.610;2022-07-10T15:27:26;100589.28;;;26.09;39.44
58753;BME280;44525;46.052;13.610;2022-07-10T15:29:54;100586.38;;;25.91;39.97
58753;BME280;44525;46.052;13.610;2022-07-10T15:32:21;100588.72;;;25.89;40.28
58753;BME280;44525;46.052;13.610;2022-07-10T15:34:46;100595.00;;;25.79;41.44
58753;BME280;44525;46.052;13.610;2022-07-10T15:37:14;100602.56;;;25.78;41.71
58753;BME280;44525;46.052;13.610;2022-07-10T15:39:40;100601.84;;;25.88;42.73
58753;BME280;44525;46.052;13.610;2022-07-10T15:42:12;100603.34;;;25.75;41.89
58753;BME280;44525;46.052;13.610;2022-07-10T15:44:38;100610.41;;;25.62;43.00
58753;BME280;44525;46.052;13.610;2022-07-10T15:47:04;100601.16;;;25.47;44.76
58753;BME280;44525;46.052;13.610;2022-07-10T15:49:30;100604.97;;;25.31;45.91
58753;BME280;44525;46.052;13.610;2022-07-10T15:51:56;100602.00;;;25.17;43.32
58753;BME280;44525;46.052;13.610;2022-07-10T15:54:24;100613.50;;;25.15;43.24
58753;BME280;44525;46.052;13.610;2022-07-10T15:56:50;100612.09;;;24.95;44.01
58753;BME280;44525;46.052;13.610;2022-07-10T15:59:15;100615.88;;;25.13;42.81
58753;BME280;44525;46.052;13.610;2022-07-10T16:01:44;100610.03;;;25.26;41.93
58753;BME280;44525;46.052;13.610;2022-07-10T16:04:10;100609.63;;;25.24;41.68
58753;BME280;44525;46.052;13.610;2022-07-10T16:06:35;100617.13;;;25.19;43.49
58753;BME280;44525;46.052;13.610;2022-07-10T16:09:01;100624.88;;;25.37;43.77
58753;BME280;44525;46.052;13.610;2022-07-10T16:11:27;100617.44;;;25.48;45.04
58753;BME280;44525;46.052;13.610;2022-07-10T16:13:53;100619.91;;;25.57;45.06
58753;BME280;44525;46.052;13.610;2022-07-10T16:16:19;100617.47;;;25.55;42.83
58753;BME280;44525;46.052;13.610;2022-07-10T16:18:44;100611.13;;;25.51;43.58
58753;BME280;44525;46.052;13.610;2022-07-10T16:21:10;100613.25;;;25.28;44.71
58753;BME280;44525;46.052;13.610;2022-07-10T16:23:35;100618.69;;;25.17;44.95
58753;BME280;44525;46.052;13.610;2022-07-10T16:26:01;100622.56;;;25.43;44.86
58753;BME280;44525;46.052;13.610;2022-07-10T16:28:30;100614.59;;;25.41;45.97
58753;BME280;44525;46.052;13.610;2022-07-10T16:30:56;100613.47;;;25.49;45.09
58753;BME280;44525;46.052;13.610;2022-07-10T16:33:22;100611.13;;;25.51;44.18
58753;BME280;44525;46.052;13.610;2022-07-10T16:35:48;100610.41;;;25.62;43.85
58753;BME280;44525;46.052;13.610;2022-07-10T16:38:14;100606.00;;;25.61;44.25
58753;BME280;44525;46.052;13.610;2022-07-10T16:40:42;100600.97;;;25.73;43.18
58753;BME280;44525;46.052;13.610;2022-07-10T16:43:08;100603.78;;;25.81;42.77
58753;BME280;44525;46.052;13.610;2022-07-10T16:45:36;100602.13;;;25.69;44.20
58753;BME280;44525;46.052;13.610;2022-07-10T16:48:01;100612.16;;;25.84;44.18
58753;BME280;44525;46.052;13.610;2022-07-10T16:50:28;100608.25;;;25.92;44.36
58753;BME280;44525;46.052;13.610;2022-07-10T16:52:55;100602.25;;;25.87;44.38
58753;BME280;44525;46.052;13.610;2022-07-10T16:55:20;100609.34;;;25.81;44.32
58753;BME280;44525;46.052;13.610;2022-07-10T16:57:46;100604.13;;;25.76;44.53
58753;BME280;44525;46.052;13.610;2022-07-10T17:00:12;100612.16;;;25.84;44.05
58753;BME280;44525;46.052;13.610;2022-07-10T17:02:38;100608.13;;;25.78;44.19
58753;BME280;44525;46.052;13.610;2022-07-10T17:05:04;100611.31;;;25.77;44.47
58753;BME280;44525;46.052;13.610;2022-07-10T17:07:30;100601.81;;;25.85;44.56
58753;BME280;44525;46.052;13.610;2022-07-10T17:09:56;100610.47;;;25.69;44.29
58753;BME280;44525;46.052;13.610;2022-07-10T17:12:22;100608.09;;;25.71;44.90
58753;BME280;44525;46.052;13.610;2022-07-10T17:14:47;100598.56;;;25.72;43.86
58753;BME280;44525;46.052;13.610;2022-07-10T17:17:13;100596.13;;;25.67;44.39
58753;BME280;44525;46.052;13.610;2022-07-10T17:19:38;100600.44;;;25.57;44.37
58753;BME280;44525;46.052;13.610;2022-07-10T17:22:04;100603.84;;;25.39;45.19
58753;BME280;44525;46.052;13.610;2022-07-10T17:24:33;100609.25;;;25.25;45.72
58753;BME280;44525;46.052;13.610;2022-07-10T17:26:58;100611.56;;;25.16;45.73
58753;BME280;44525;46.052;13.610;2022-07-10T17:29:24;100608.25;;;25.07;46.58
58753;BME280;44525;46.052;13.610;2022-07-10T17:31:50;100615.34;;;25.00;46.57
58753;BME280;44525;46.052;13.610;2022-07-10T17:34:15;100617.16;;;24.85;46.87
58753;BME280;44525;46.052;13.610;2022-07-10T17:36:44;100606.56;;;24.95;47.11
58753;BME280;44525;46.052;13.610;2022-07-10T17:39:09;100612.78;;;24.84;47.82
58753;BME280;44525;46.052;13.610;2022-07-10T17:41:38;100614.00;;;24.83;48.26
58753;BME280;44525;46.052;13.610;2022-07-10T17:44:04;100614.28;;;24.75;48.23
58753;BME280;44525;46.052;13.610;2022-07-10T17:46:30;100612.78;;;24.84;48.31
58753;BME280;44525;46.052;13.610;2022-07-10T17:48:56;100613.75;;;24.65;48.81
58753;BME280;44525;46.052;13.610;2022-07-10T17:51:22;100617.25;;;24.59;48.70
58753;BME280;44525;46.052;13.610;2022-07-10T17:53:49;100613.22;;;24.56;49.25
58753;BME280;44525;46.052;13.610;2022-07-10T17:56:15;100614.69;;;24.46;49.15
58753;BME280;44525;46.052;13.610;2022-07-10T17:58:41;100621.16;;;24.58;47.34
58753;BME280;44525;46.052;13.610;2022-07-10T18:01:06;100617.38;;;24.39;47.59
58753;BME280;44525;46.052;13.610;2022-07-10T18:03:32;100616.91;;;24.33;47.52
58753;BME280;44525;46.052;13.610;2022-07-10T18:06:01;100624.09;;;24.38;47.55
58753;BME280;44525;46.052;13.610;2022-07-10T18:08:27;100635.06;;;24.27;47.90
58753;BME280;44525;46.052;13.610;2022-07-10T18:10:53;100630.31;;;24.28;48.25
58753;BME280;44525;46.052;13.610;2022-07-10T18:13:19;100625.00;;;24.15;48.07
58753;BME280;44525;46.052;13.610;2022-07-10T18:15:45;100633.47;;;23.99;49.25
58753;BME280;44525;46.052;13.610;2022-07-10T18:18:11;100636.41;;;24.10;49.13
58753;BME280;44525;46.052;13.610;2022-07-10T18:20:36;100642.91;;;23.95;49.81
58753;BME280;44525;46.052;13.610;2022-07-10T18:23:06;100638.09;;;23.69;50.81
58753;BME280;44525;46.052;13.610;2022-07-10T18:25:32;100646.03;;;23.70;51.02
58753;BME280;44525;46.052;13.610;2022-07-10T18:27:58;100649.94;;;23.65;51.23
58753;BME280;44525;46.052;13.610;2022-07-10T18:30:24;100655.41;;;23.62;51.12
58753;BME280;44525;46.052;13.610;2022-07-10T18:32:50;100669.78;;;23.44;51.88
58753;BME280;44525;46.052;13.610;2022-07-10T18:35:42;100658.38;;;23.50;52.03
58753;BME280;44525;46.052;13.610;2022-07-10T18:38:07;100670.19;;;23.46;52.11
58753;BME280;44525;46.052;13.610;2022-07-10T18:40:33;100675.97;;;23.38;52.53
58753;BME280;44525;46.052;13.610;2022-07-10T18:42:58;100675.31;;;23.44;52.65
58753;BME280;44525;46.052;13.610;2022-07-10T18:45:26;100673.00;;;23.27;53.35
58753;BME280;44525;46.052;13.610;2022-07-10T18:47:51;100674.34;;;23.14;53.79
58753;BME280;44525;46.052;13.610;2022-07-10T18:50:17;100682.91;;;23.28;53.63
58753;BME280;44525;46.052;13.610;2022-07-10T18:52:42;100679.22;;;23.20;53.97
58753;BME280;44525;46.052;13.610;2022-07-10T18:55:08;100683.13;;;23.19;54.06
58753;BME280;44525;46.052;13.610;2022-07-10T18:57:37;100696.72;;;23.05;54.53
58753;BME280;44525;46.052;13.610;2022-07-10T19:00:03;100701.44;;;22.85;55.44
58753;BME280;44525;46.052;13.610;2022-07-10T19:02:30;100701.53;;;22.53;56.44
58753;BME280;44525;46.052;13.610;2022-07-10T19:04:56;100706.91;;;22.46;56.34
58753;BME280;44525;46.052;13.610;2022-07-10T19:07:22;100711.97;;;22.28;57.88
58753;BME280;44525;46.052;13.610;2022-07-10T19:09:47;100721.53;;;22.30;58.16
58753;BME280;44525;46.052;13.610;2022-07-10T19:12:13;100723.06;;;22.28;58.58
58753;BME280;44525;46.052;13.610;2022-07-10T19:14:38;100726.28;;;22.30;57.82
58753;BME280;44525;46.052;13.610;2022-07-10T19:17:04;100730.13;;;22.09;58.51
58753;BME280;44525;46.052;13.610;2022-07-10T19:19:29;100734.84;;;22.08;58.70
58753;BME280;44525;46.052;13.610;2022-07-10T19:21:55;100739.75;;;21.99;58.82
58753;BME280;44525;46.052;13.610;2022-07-10T19:24:20;100741.13;;;21.89;59.48
58753;BME280;44525;46.052;13.610;2022-07-10T19:26:50;100747.88;;;21.76;60.21
58753;BME280;44525;46.052;13.610;2022-07-10T19:29:16;100753.88;;;21.94;59.29
58753;BME280;44525;46.052;13.610;2022-07-10T19:31:41;100751.91;;;21.95;59.44
58753;BME280;44525;46.052;13.610;2022-07-10T19:34:07;100757.06;;;21.96;59.67
58753;BME280;44525;46.052;13.610;2022-07-10T19:36:32;100761.69;;;21.92;59.79
58753;BME280;44525;46.052;13.610;2022-07-10T19:38:58;100766.88;;;21.78;60.77
58753;BME280;44525;46.052;13.610;2022-07-10T19:41:23;100761.41;;;21.65;61.24
58753;BME280;44525;46.052;13.610;2022-07-10T19:43:49;100762.94;;;21.79;61.02
58753;BME280;44525;46.052;13.610;2022-07-10T19:46:15;100762.22;;;21.66;60.67
58753;BME280;44525;46.052;13.610;2022-07-10T19:48:41;100773.63;;;21.64;60.67
58753;BME280;44525;46.052;13.610;2022-07-10T19:51:13;100766.41;;;21.47;61.27
58753;BME280;44525;46.052;13.610;2022-07-10T19:53:39;100770.69;;;21.45;61.24
58753;BME280;44525;46.052;13.610;2022-07-10T19:56:05;100780.81;;;21.53;61.08
58753;BME280;44525;46.052;13.610;2022-07-10T19:58:30;100773.91;;;21.47;61.46
58753;BME280;44525;46.052;13.610;2022-07-10T20:00:56;100776.63;;;21.59;60.82
58753;BME280;44525;46.052;13.610;2022-07-10T20:03:21;100773.00;;;21.43;61.59
58753;BME280;44525;46.052;13.610;2022-07-10T20:05:47;100777.09;;;21.49;61.48
58753;BME280;44525;46.052;13.610;2022-07-10T20:08:12;100786.84;;;21.30;61.68
58753;BME280;44525;46.052;13.610;2022-07-10T20:10:38;100790.72;;;21.54;61.15
58753;BME280;44525;46.052;13.610;2022-07-10T20:13:04;100787.16;;;21.41;61.71
58753;BME280;44525;46.052;13.610;2022-07-10T20:15:30;100792.63;;;21.25;62.20
58753;BME280;44525;46.052;13.610;2022-07-10T20:17:55;100791.75;;;21.09;62.68
58753;BME280;44525;46.052;13.610;2022-07-10T20:20:22;100796.38;;;21.05;63.20
58753;BME280;44525;46.052;13.610;2022-07-10T20:22:47;100795.91;;;20.90;64.04
58753;BME280;44525;46.052;13.610;2022-07-10T20:25:13;100795.81;;;20.87;64.50
58753;BME280;44525;46.052;13.610;2022-07-10T20:27:38;100800.53;;;20.74;64.96
58753;BME280;44525;46.052;13.610;2022-07-10T20:30:06;100795.47;;;20.63;65.48
58753;BME280;44525;46.052;13.610;2022-07-10T20:32:32;100798.38;;;20.67;65.46
58753;BME280;44525;46.052;13.610;2022-07-10T20:34:58;100806.28;;;20.56;65.55
58753;BME280;44525;46.052;13.610;2022-07-10T20:37:23;100802.94;;;20.63;65.29
58753;BME280;44525;46.052;13.610;2022-07-10T20:40:06;100809.94;;;20.36;66.37
58753;BME280;44525;46.052;13.610;2022-07-10T20:42:33;100810.41;;;20.50;65.67
58753;BME280;44525;46.052;13.610;2022-07-10T20:44:58;100811.66;;;20.40;66.00
58753;BME280;44525;46.052;13.610;2022-07-10T20:47:24;100805.94;;;20.33;65.93
58753;BME280;44525;46.052;13.610;2022-07-10T20:49:49;100807.88;;;20.20;66.12
58753;BME280;44525;46.052;13.610;2022-07-10T20:52:15;100812.34;;;20.12;65.59
58753;BME280;44525;46.052;13.610;2022-07-10T20:54:41;100814.72;;;20.02;66.27
58753;BME280;44525;46.052;13.610;2022-07-10T20:57:06;100822.38;;;19.96;66.10
58753;BME280;44525;46.052;13.610;2022-07-10T20:59:32;100820.41;;;19.84;67.74
58753;BME280;44525;46.052;13.610;2022-07-10T21:01:58;100821.34;;;19.88;67.49
58753;BME280;44525;46.052;13.610;2022-07-10T21:04:23;100826.75;;;19.97;67.58
58753;BME280;44525;46.052;13.610;2022-07-10T21:06:49;100824.44;;;19.87;68.27
58753;BME280;44525;46.052;13.610;2022-07-10T21:09:15;100831.91;;;19.86;68.05
58753;BME280;44525;46.052;13.610;2022-07-10T21:11:40;100828.66;;;19.84;68.24